Time;durP1;ratioP1;P1;durP2;ratioP2;P2;SDS_P1;SDS_P2;PMS_P1;PMS_P2;Temp;Humidity;BMP_temperature;BMP_pressure;BME280_temperature;BME280_humidity;BME280_pressure;Samples;Min_cycle;Max_cycle;Signal;HPM_P1;HPM_P2
2024/01/27 00:02:24;;;;;;;12.60;9.30;;;;;;;2.30;100.00;100575.34;105130;1265;61109;-80
2024/01/27 00:04:51;;;;;;;14.90;9.80;;;;;;;2.31;100.00;100579.96;105033;1262;60358;-78
2024/01/27 00:07:18;;;;;;;11.30;8.80;;;;;;;2.28;100.00;100579.35;105195;1260;73056;-77
2024/01/27 00:09:45;;;;;;;11.90;10.10;;;;;;;2.25;100.00;100580.63;105209;1264;63736;-78
2024/01/27 00:12:12;;;;;;;11.20;9.20;;;;;;;2.23;100.00;100580.51;105161;1264;72680;-78
2024/01/27 00:14:39;;;;;;;12.50;9.20;;;;;;;2.25;100.00;100579.44;105217;1259;59767;-79
2024/01/27 00:17:06;;;;;;;14.20;9.90;;;;;;;2.29;100.00;100578.13;105350;1260;60390;-80
2024/01/27 00:19:34;;;;;;;10.90;9.80;;;;;;;2.34;100.00;100579.53;105812;1253;72930;-77
2024/01/27 00:22:07;;;;;;;11.60;9.20;;;;;;;2.39;100.00;100578.37;105814;1255;63883;-75
2024/01/27 00:24:34;;;;;;;10.40;8.80;;;;;;;2.43;100.00;100576.03;105764;1256;72711;-76
2024/01/27 00:27:01;;;;;;;10.40;8.20;;;;;;;2.43;100.00;100581.90;105851;1255;61090;-77
2024/01/27 00:29:28;;;;;;;10.30;8.10;;;;;;;2.40;100.00;100583.00;105839;1255;60304;-76
2024/01/27 00:31:55;;;;;;;11.90;8.50;;;;;;;2.36;100.00;100581.73;105755;1253;73170;-79
2024/01/27 00:34:23;;;;;;;10.90;8.50;;;;;;;2.31;100.00;100582.05;105949;1255;63739;-79
2024/01/27 00:36:50;;;;;;;9.20;7.70;;;;;;;2.25;100.00;100585.30;105783;1259;72660;-78
2024/01/27 00:39:18;;;;;;;10.00;7.50;;;;;;;2.20;100.00;100586.46;105914;1253;59699;-78
2024/01/27 00:41:45;;;;;;;9.80;7.50;;;;;;;2.15;100.00;100590.21;105911;1253;60284;-78
2024/01/27 00:44:12;;;;;;;6.90;6.20;;;;;;;2.12;100.00;100587.36;106025;1255;72794;-77
2024/01/27 00:46:39;;;;;;;9.30;7.30;;;;;;;2.13;100.00;100591.30;108585;1252;63941;-77
2024/01/27 00:49:07;;;;;;;8.40;7.50;;;;;;;2.14;100.00;100592.15;109493;1252;71277;-76
2024/01/27 00:51:34;;;;;;;10.80;7.20;;;;;;;2.15;100.00;100592.28;109205;1252;59752;-77
2024/01/27 00:54:01;;;;;;;7.90;6.60;;;;;;;2.16;100.00;100596.41;107553;1252;59630;-77
2024/01/27 00:56:29;;;;;;;8.80;6.70;;;;;;;2.15;100.00;100597.62;106486;1253;73061;-77
2024/01/27 00:58:56;;;;;;;7.70;6.70;;;;;;;2.13;100.00;100596.66;105804;1253;61373;-78
2024/01/27 01:01:22;;;;;;;8.10;6.60;;;;;;;2.10;100.00;100597.41;105800;1255;72658;-78
2024/01/27 01:03:49;;;;;;;7.60;6.50;;;;;;;2.04;100.00;100597.90;105879;1255;61256;-78
2024/01/27 01:06:16;;;;;;;7.80;6.90;;;;;;;1.98;100.00;100601.67;105745;1256;59725;-80
2024/01/27 01:08:43;;;;;;;7.40;6.60;;;;;;;1.97;100.00;100597.41;105755;1253;73053;-78
2024/01/27 01:11:10;;;;;;;8.60;6.80;;;;;;;1.95;100.00;100596.76;105724;1258;63793;-80
2024/01/27 01:13:37;;;;;;;8.50;6.70;;;;;;;1.95;100.00;100595.38;105772;1255;72700;-77
2024/01/27 01:16:04;;;;;;;8.60;7.30;;;;;;;1.92;100.00;100593.55;105743;1254;59748;-77
2024/01/27 01:18:32;;;;;;;8.80;6.80;;;;;;;1.88;100.00;100596.22;105869;1253;60421;-76
2024/01/27 01:20:59;;;;;;;8.00;7.00;;;;;;;1.87;100.00;100597.98;105785;1253;73145;-76
2024/01/27 01:23:26;;;;;;;8.40;6.80;;;;;;;1.86;100.00;100598.50;105779;1255;63902;-77
2024/01/27 01:25:53;;;;;;;9.50;6.80;;;;;;;1.87;100.00;100603.84;105818;1253;72652;-77
2024/01/27 01:28:19;;;;;;;7.80;6.20;;;;;;;1.86;100.00;100606.42;106508;1252;59899;-77
2024/01/27 01:30:46;;;;;;;7.30;6.50;;;;;;;1.85;100.00;100606.63;106333;1252;60472;-77
2024/01/27 01:33:15;;;;;;;8.00;6.90;;;;;;;1.87;100.00;100605.58;106909;1252;72955;-77
2024/01/27 01:35:42;;;;;;;9.00;7.00;;;;;;;1.91;100.00;100605.45;105998;1256;63871;-78
2024/01/27 01:38:09;;;;;;;7.70;6.20;;;;;;;1.92;100.00;100605.80;105843;1255;72563;-78
2024/01/27 01:40:36;;;;;;;8.30;6.40;;;;;;;1.90;100.00;100608.94;105878;1256;61257;-76
2024/01/27 01:43:04;;;;;;;7.70;6.20;;;;;;;1.88;100.00;100609.84;105831;1252;60282;-78
2024/01/27 01:45:31;;;;;;;9.20;7.20;;;;;;;1.88;100.00;100612.44;105825;1253;73136;-79
2024/01/27 01:47:59;;;;;;;11.90;6.00;;;;;;;1.86;100.00;100612.46;105798;1255;63801;-77
2024/01/27 01:50:25;;;;;;;9.60;7.20;;;;;;;1.82;100.00;100610.32;106032;1253;72476;-80
2024/01/27 01:52:53;;;;;;;7.90;6.40;;;;;;;1.81;100.00;100611.91;108056;1253;60103;-79
2024/01/27 01:55:20;;;;;;;7.30;6.20;;;;;;;1.78;100.00;100613.20;106797;1253;59546;-77
2024/01/27 01:57:48;;;;;;;8.80;6.50;;;;;;;1.74;100.00;100614.33;106331;1252;72921;-78
2024/01/27 02:00:16;;;;;;;6.70;5.80;;;;;;;1.74;100.00;100617.26;106059;1253;62545;-78
2024/01/27 02:02:44;;;;;;;8.10;6.40;;;;;;;1.76;100.00;100615.13;105671;1252;71388;-81
2024/01/27 02:05:12;;;;;;;8.00;6.20;;;;;;;1.76;100.00;100615.15;105945;1256;61052;-79
2024/01/27 02:07:39;;;;;;;8.30;6.40;;;;;;;1.77;100.00;100615.13;105864;1253;60350;-77
2024/01/27 02:10:16;;;;;;;6.70;5.60;;;;;;;1.81;100.00;100614.32;106649;1252;71577;-77
2024/01/27 02:12:44;;;;;;;7.30;6.40;;;;;;;1.87;100.00;100612.63;107425;1253;63872;-77
2024/01/27 02:15:12;;;;;;;6.60;5.90;;;;;;;1.89;100.00;100615.52;106604;1253;71278;-78
2024/01/27 02:17:40;;;;;;;9.40;6.90;;;;;;;1.91;100.00;100615.30;106132;1252;61149;-76
2024/01/27 02:20:07;;;;;;;8.00;6.50;;;;;;;1.94;100.00;100616.60;105849;1252;60045;-77
2024/01/27 02:22:35;;;;;;;7.60;6.70;;;;;;;1.96;100.00;100615.53;105735;1258;73071;-79
2024/01/27 02:25:02;;;;;;;8.90;7.20;;;;;;;1.96;100.00;100616.73;105861;1253;62398;-78
2024/01/27 02:27:30;;;;;;;8.10;6.80;;;;;;;1.95;100.00;100617.61;105855;1253;72685;-78
2024/01/27 02:29:57;;;;;;;8.10;6.20;;;;;;;1.95;100.00;100621.92;105917;1255;61195;-78
2024/01/27 02:32:23;;;;;;;7.10;6.40;;;;;;;1.96;100.00;100622.42;105874;1253;60208;-80
2024/01/27 02:34:50;;;;;;;7.70;6.70;;;;;;;1.96;100.00;100623.27;105714;1253;73066;-78
2024/01/27 02:37:18;;;;;;;7.20;6.50;;;;;;;1.96;100.00;100622.41;105680;1256;63813;-79
2024/01/27 02:39:45;;;;;;;7.70;6.30;;;;;;;1.95;100.00;100625.73;105854;1253;71286;-79
2024/01/27 02:42:12;;;;;;;8.10;6.60;;;;;;;1.95;100.00;100627.27;105919;1253;59660;-77
2024/01/27 02:44:39;;;;;;;10.50;7.00;;;;;;;1.95;100.00;100629.34;105738;1253;60287;-77
2024/01/27 02:47:05;;;;;;;8.70;7.50;;;;;;;1.95;100.00;100629.86;105865;1253;71442;-78
2024/01/27 02:49:32;;;;;;;8.60;6.60;;;;;;;1.96;100.00;100632.24;105904;1256;63841;-77
2024/01/27 02:51:59;;;;;;;9.20;7.10;;;;;;;1.96;100.00;100636.55;105725;1255;72527;-79
2024/01/27 02:54:27;;;;;;;7.70;6.30;;;;;;;1.96;100.00;100636.91;105679;1255;59797;-80
2024/01/27 02:56:54;;;;;;;8.20;6.30;;;;;;;1.92;100.00;100634.92;105614;1253;59637;-79
2024/01/27 02:59:21;;;;;;;9.00;6.70;;;;;;;1.81;100.00;100637.07;105660;1253;70489;-78
2024/01/27 03:01:48;;;;;;;10.70;8.10;;;;;;;1.70;100.00;100638.55;105671;1255;63875;-78
2024/01/27 03:04:15;;;;;;;10.50;7.60;;;;;;;1.64;100.00;100641.25;105657;1256;72705;-79
2024/01/27 03:06:42;;;;;;;9.80;7.10;;;;;;;1.61;100.00;100635.64;105776;1256;59758;-76
2024/01/27 03:09:10;;;;;;;9.80;8.00;;;;;;;1.59;100.00;100634.31;105781;1253;59987;-77
2024/01/27 03:11:38;;;;;;;10.80;8.30;;;;;;;1.56;100.00;100634.38;106189;1253;73020;-76
2024/01/27 03:14:05;;;;;;;10.90;8.30;;;;;;;1.51;100.00;100634.66;105721;1255;63548;-80
2024/01/27 03:16:32;;;;;;;11.80;7.90;;;;;;;1.49;100.00;100637.81;105870;1255;73867;-78
2024/01/27 03:18:59;;;;;;;11.10;7.40;;;;;;;1.47;100.00;100636.82;105705;1255;61339;-78
2024/01/27 03:21:26;;;;;;;11.00;8.60;;;;;;;1.43;100.00;100635.52;105817;1253;59695;-78
2024/01/27 03:23:53;;;;;;;10.50;7.70;;;;;;;1.42;100.00;100635.73;105799;1253;71596;-77
2024/01/27 03:26:20;;;;;;;10.90;7.90;;;;;;;1.40;100.00;100634.57;105841;1254;62294;-79
2024/01/27 03:28:47;;;;;;;9.70;7.70;;;;;;;1.39;100.00;100631.13;105869;1253;72627;-78
2024/01/27 03:31:14;;;;;;;10.00;7.90;;;;;;;1.39;100.00;100627.02;105800;1256;61191;-77
2024/01/27 03:33:41;;;;;;;11.50;8.70;;;;;;;1.39;100.00;100625.27;105889;1255;60438;-79
2024/01/27 03:36:12;;;;;;;12.60;7.90;;;;;;;1.40;100.00;100621.13;105847;1253;72405;-78
2024/01/27 03:38:42;;;;;;;10.00;7.50;;;;;;;1.37;100.00;100619.45;105821;1253;63661;-77
2024/01/27 03:41:09;;;;;;;10.10;7.20;;;;;;;1.38;100.00;100622.90;105874;1256;71036;-78
2024/01/27 03:43:36;;;;;;;9.90;7.20;;;;;;;1.36;100.00;100620.52;105685;1256;60728;-78
2024/01/27 03:46:03;;;;;;;10.90;7.50;;;;;;;1.33;100.00;100624.55;105678;1254;60470;-79
2024/01/27 03:48:30;;;;;;;11.40;8.60;;;;;;;1.31;100.00;100629.43;105807;1254;73775;-78
2024/01/27 03:50:58;;;;;;;14.10;8.90;;;;;;;1.31;100.00;100627.53;105798;1258;63582;-79
2024/01/27 03:53:25;;;;;;;10.60;7.60;;;;;;;1.32;100.00;100627.67;105893;1255;72612;-79
2024/01/27 03:55:54;;;;;;;10.50;8.00;;;;;;;1.29;100.00;100628.27;105739;1253;61030;-77
2024/01/27 03:58:21;;;;;;;11.80;7.90;;;;;;;1.26;100.00;100633.15;105837;1253;61997;-78
2024/01/27 04:00:48;;;;;;;11.00;8.90;;;;;;;1.23;100.00;100628.05;105781;1254;73940;-78
2024/01/27 04:03:15;;;;;;;11.90;8.30;;;;;;;1.22;100.00;100633.23;105884;1253;62867;-77
2024/01/27 04:05:42;;;;;;;11.60;7.80;;;;;;;1.20;100.00;100633.45;105746;1259;72333;-78
2024/01/27 04:08:09;;;;;;;11.40;8.60;;;;;;;1.17;100.00;100637.63;105674;1255;60550;-80
2024/01/27 04:10:36;;;;;;;11.10;9.10;;;;;;;1.17;100.00;100634.03;105755;1256;61218;-79
2024/01/27 04:13:04;;;;;;;10.70;7.80;;;;;;;1.18;100.00;100640.39;105774;1253;72629;-80
2024/01/27 04:15:38;;;;;;;10.70;8.50;;;;;;;1.20;100.00;100642.06;105965;1256;63668;-81
2024/01/27 04:18:07;;;;;;;11.00;7.80;;;;;;;1.23;100.00;100647.14;105963;1253;72332;-81
2024/01/27 04:20:35;;;;;;;11.00;7.70;;;;;;;1.24;100.00;100650.75;105960;1255;60432;-78
2024/01/27 04:23:02;;;;;;;11.20;7.90;;;;;;;1.23;100.00;100654.55;107314;1253;60923;-77
2024/01/27 04:25:29;;;;;;;12.10;8.20;;;;;;;1.24;100.00;100656.59;109244;1253;71443;-77
2024/01/27 04:27:56;;;;;;;13.60;9.60;;;;;;;1.28;100.00;100658.25;108132;1253;62388;-77
2024/01/27 04:30:23;;;;;;;12.90;10.30;;;;;;;1.31;100.00;100660.41;107724;1256;71233;-77
2024/01/27 04:32:51;;;;;;;14.50;9.60;;;;;;;1.36;100.00;100660.48;105967;1254;60548;-77
2024/01/27 04:35:18;;;;;;;12.50;9.20;;;;;;;1.38;100.00;100663.71;106296;1258;60413;-78
2024/01/27 04:37:45;;;;;;;13.90;9.90;;;;;;;1.39;100.00;100665.23;107210;1253;73682;-76
2024/01/27 04:40:12;;;;;;;14.90;9.60;;;;;;;1.41;100.00;100667.27;109119;1253;62609;-78
2024/01/27 04:42:39;;;;;;;14.90;10.80;;;;;;;1.44;100.00;100668.76;109319;1252;71374;-77
2024/01/27 04:45:07;;;;;;;14.60;10.60;;;;;;;1.49;100.00;100676.41;109521;1253;59689;-77
2024/01/27 04:47:34;;;;;;;14.50;10.10;;;;;;;1.56;100.00;100676.26;108239;1256;59254;-78
2024/01/27 04:50:01;;;;;;;16.90;10.70;;;;;;;1.59;100.00;100683.94;105754;1254;73884;-77
2024/01/27 04:52:28;;;;;;;15.10;10.00;;;;;;;1.60;100.00;100683.21;105758;1256;63890;-77
2024/01/27 04:54:55;;;;;;;15.90;10.70;;;;;;;1.64;100.00;100685.20;105859;1253;72714;-79
2024/01/27 04:57:22;;;;;;;16.10;10.50;;;;;;;1.67;100.00;100689.45;105908;1256;61037;-78
2024/01/27 04:59:49;;;;;;;18.10;11.90;;;;;;;1.72;100.00;100691.42;105761;1254;60546;-76
2024/01/27 05:02:15;;;;;;;18.20;12.40;;;;;;;1.76;100.00;100688.39;105758;1257;72701;-78
2024/01/27 05:04:42;;;;;;;15.30;10.50;;;;;;;1.81;100.00;100695.69;105746;1255;62812;-79
2024/01/27 05:07:09;;;;;;;19.10;11.60;;;;;;;1.85;100.00;100693.52;105902;1257;72665;-79
2024/01/27 05:09:37;;;;;;;20.30;12.30;;;;;;;1.86;100.00;100697.80;105897;1253;60485;-79
2024/01/27 05:12:04;;;;;;;20.40;12.30;;;;;;;1.88;100.00;100696.90;105816;1253;60475;-79
2024/01/27 05:14:31;;;;;;;22.40;13.40;;;;;;;1.91;100.00;100697.54;105868;1253;73884;-78
2024/01/27 05:16:58;;;;;;;18.10;12.60;;;;;;;1.92;100.00;100694.41;105932;1254;62375;-78
2024/01/27 05:19:25;;;;;;;17.80;12.10;;;;;;;1.87;100.00;100698.48;105816;1253;71104;-77
2024/01/27 05:21:52;;;;;;;16.70;11.30;;;;;;;1.80;100.00;100698.11;105885;1254;60821;-79
2024/01/27 05:24:18;;;;;;;17.40;11.70;;;;;;;1.79;100.00;100701.41;105851;1253;60542;-77
2024/01/27 05:26:46;;;;;;;16.50;11.70;;;;;;;1.78;100.00;100704.54;105776;1254;72296;-80
2024/01/27 05:29:13;;;;;;;19.40;12.60;;;;;;;1.79;100.00;100711.07;105948;1257;64175;-79
2024/01/27 05:31:43;;;;;;;20.80;13.70;;;;;;;1.79;100.00;100712.45;105879;1257;72760;-79
2024/01/27 05:34:12;;;;;;;19.90;12.40;;;;;;;1.74;100.00;100710.32;105820;1259;61254;-81
2024/01/27 05:36:40;;;;;;;20.70;13.10;;;;;;;1.70;100.00;100711.28;105751;1257;60591;-79
2024/01/27 05:39:06;;;;;;;19.50;13.20;;;;;;;1.66;100.00;100714.12;106004;1257;73726;-79
2024/01/27 05:41:33;;;;;;;21.40;14.30;;;;;;;1.64;100.00;100709.49;106829;1254;63748;-78
2024/01/27 05:44:00;;;;;;;23.00;14.00;;;;;;;1.65;100.00;100711.20;107305;1253;71555;-79
2024/01/27 05:46:28;;;;;;;24.10;14.80;;;;;;;1.67;100.00;100710.81;106888;1256;61157;-80
2024/01/27 05:48:57;;;;;;;23.70;14.60;;;;;;;1.69;100.00;100711.64;106067;1257;60469;-80
2024/01/27 05:51:24;;;;;;;24.50;15.50;;;;;;;1.70;100.00;100710.59;105858;1253;73649;-79
2024/01/27 05:53:51;;;;;;;26.90;15.60;;;;;;;1.71;100.00;100711.06;105730;1259;63778;-78
2024/01/27 05:56:22;;;;;;;28.30;17.80;;;;;;;1.76;100.00;100712.85;105922;1255;72537;-83
2024/01/27 05:58:49;;;;;;;30.80;19.30;;;;;;;1.80;100.00;100707.59;106735;1253;60827;-78
2024/01/27 06:01:20;;;;;;;30.90;20.10;;;;;;;1.84;100.00;100712.85;108053;1253;60516;-80
2024/01/27 06:03:47;;;;;;;29.80;18.40;;;;;;;1.89;100.00;100716.20;106773;1254;74056;-80
2024/01/27 06:06:14;;;;;;;31.40;20.10;;;;;;;1.92;100.00;100715.45;106030;1257;63915;-80
2024/01/27 06:08:41;;;;;;;27.70;18.30;;;;;;;1.96;100.00;100718.29;105807;1254;71233;-80
2024/01/27 06:11:08;;;;;;;32.60;20.80;;;;;;;1.97;100.00;100720.67;105759;1254;60422;-79
2024/01/27 06:13:40;;;;;;;32.40;21.40;;;;;;;1.99;100.00;100723.89;105887;1256;61437;-81
2024/01/27 06:16:11;;;;;;;29.70;19.80;;;;;;;2.01;100.00;100726.77;105813;1263;73931;-79
2024/01/27 06:18:39;;;;;;;31.00;18.80;;;;;;;2.02;100.00;100725.90;105792;1257;62228;-80
2024/01/27 06:21:07;;;;;;;35.80;20.50;;;;;;;2.03;100.00;100729.99;105786;1258;71494;-80
2024/01/27 06:23:34;;;;;;;29.30;18.70;;;;;;;2.05;100.00;100733.40;105748;1258;61107;-82
2024/01/27 06:26:07;;;;;;;34.00;18.30;;;;;;;2.08;100.00;100735.06;105778;1257;60466;-80
2024/01/27 06:28:36;;;;;;;26.80;18.20;;;;;;;2.13;100.00;100735.64;105886;1259;72903;-82
2024/01/27 06:31:03;;;;;;;31.70;17.90;;;;;;;2.17;100.00;100733.83;106018;1257;62492;-81
2024/01/27 06:33:31;;;;;;;27.30;16.60;;;;;;;2.22;100.00;100733.71;105884;1257;72618;-79
2024/01/27 06:35:58;;;;;;;30.10;17.60;;;;;;;2.24;100.00;100734.34;106199;1257;60426;-81
2024/01/27 06:38:28;;;;;;;31.60;18.90;;;;;;;2.25;100.00;100734.33;105983;1258;60546;-81
2024/01/27 06:40:57;;;;;;;31.00;19.00;;;;;;;2.26;100.00;100736.70;105749;1253;72722;-81
2024/01/27 06:43:24;;;;;;;32.10;19.90;;;;;;;2.29;100.00;100738.04;105875;1256;63838;-81
2024/01/27 06:45:51;;;;;;;28.60;19.70;;;;;;;2.30;100.00;100739.55;105753;1253;72705;-81
2024/01/27 06:48:19;;;;;;;29.80;17.50;;;;;;;2.30;100.00;100740.43;105648;1259;61030;-82
2024/01/27 06:50:46;;;;;;;25.80;16.40;;;;;;;2.27;100.00;100741.00;105723;1257;60371;-82
2024/01/27 06:53:13;;;;;;;32.20;18.20;;;;;;;2.26;100.00;100741.88;105708;1259;73820;-81
2024/01/27 06:55:40;;;;;;;31.20;18.20;;;;;;;2.30;100.00;100743.35;105806;1254;62338;-80
2024/01/27 06:58:10;;;;;;;28.60;16.90;;;;;;;2.32;100.00;100745.04;105761;1256;72692;-80
2024/01/27 07:00:40;;;;;;;30.80;18.30;;;;;;;2.33;100.00;100746.02;105718;1259;61341;-81
2024/01/27 07:03:08;;;;;;;30.40;17.70;;;;;;;2.33;100.00;100748.79;105878;1258;60344;-79
2024/01/27 07:05:40;;;;;;;27.40;15.80;;;;;;;2.34;100.00;100753.43;105946;1256;73900;-80
2024/01/27 07:08:07;;;;;;;27.70;18.60;;;;;;;2.34;100.00;100751.88;105908;1256;63955;-81
2024/01/27 07:10:35;;;;;;;28.40;17.80;;;;;;;2.34;100.00;100749.11;105729;1256;72657;-82
2024/01/27 07:13:06;;;;;;;27.20;18.80;;;;;;;2.39;100.00;100752.45;105858;1256;60885;-80
2024/01/27 07:15:33;;;;;;;26.80;17.70;;;;;;;2.50;100.00;100749.94;106063;1257;60460;-82
2024/01/27 07:18:00;;;;;;;31.20;18.60;;;;;;;2.60;100.00;100749.02;107843;1253;73913;-81
2024/01/27 07:20:29;;;;;;;32.30;19.70;;;;;;;2.66;100.00;100752.12;106620;1252;62718;-81
2024/01/27 07:22:55;;;;;;;28.50;17.50;;;;;;;2.73;100.00;100750.05;105918;1254;71073;-81
2024/01/27 07:25:23;;;;;;;29.70;18.90;;;;;;;2.77;100.00;100754.09;106048;1254;60869;-82
2024/01/27 07:27:53;;;;;;;29.80;19.20;;;;;;;2.79;100.00;100760.95;105938;1257;60408;-79
2024/01/27 07:30:19;;;;;;;31.20;19.80;;;;;;;2.82;100.00;100761.03;105794;1255;73849;-81
2024/01/27 07:32:46;;;;;;;29.10;19.20;;;;;;;2.83;100.00;100761.70;105770;1256;64313;-80
2024/01/27 07:35:13;;;;;;;29.20;19.50;;;;;;;2.85;100.00;100765.64;105722;1256;72637;-82
2024/01/27 07:37:40;;;;;;;35.90;20.80;;;;;;;2.85;100.00;100765.98;105826;1256;61205;-80
2024/01/27 07:40:09;;;;;;;36.20;22.50;;;;;;;2.86;100.00;100767.33;105988;1258;60432;-82
2024/01/27 07:42:36;;;;;;;35.70;22.60;;;;;;;2.86;100.00;100768.70;105814;1257;74094;-82
2024/01/27 07:45:04;;;;;;;34.60;21.70;;;;;;;2.88;100.00;100770.73;105951;1253;64446;-80
2024/01/27 07:47:32;;;;;;;38.10;23.20;;;;;;;2.91;100.00;100772.20;105898;1256;71737;-80
2024/01/27 07:50:00;;;;;;;38.80;23.60;;;;;;;2.95;100.00;100768.14;105939;1256;61027;-82
2024/01/27 07:52:27;;;;;;;34.20;21.30;;;;;;;2.97;100.00;100771.03;105811;1265;61170;-81
2024/01/27 07:54:54;;;;;;;37.60;22.30;;;;;;;2.94;100.00;100770.23;106024;1257;74377;-78
2024/01/27 07:57:22;;;;;;;37.10;22.60;;;;;;;2.90;100.00;100772.41;105735;1257;62618;-78
2024/01/27 07:59:48;;;;;;;35.20;24.50;;;;;;;2.87;100.00;100773.69;105830;1256;72593;-81
2024/01/27 08:02:15;;;;;;;32.90;20.80;;;;;;;2.87;100.00;100772.51;105941;1256;60476;-80
2024/01/27 08:04:43;;;;;;;36.80;22.10;;;;;;;2.88;100.00;100776.59;105825;1255;60876;-79
2024/01/27 08:07:10;;;;;;;32.90;22.30;;;;;;;2.93;100.00;100779.94;105924;1257;73622;-79
2024/01/27 08:09:38;;;;;;;33.90;22.20;;;;;;;2.97;100.00;100779.65;106285;1254;64110;-79
2024/01/27 08:12:06;;;;;;;36.00;23.40;;;;;;;2.98;100.00;100786.19;106242;1254;72677;-79
2024/01/27 08:14:35;;;;;;;32.50;22.00;;;;;;;2.97;100.00;100783.79;105954;1256;61217;-82
2024/01/27 08:17:05;;;;;;;34.40;21.80;;;;;;;2.96;100.00;100784.16;105975;1254;60458;-79
2024/01/27 08:19:32;;;;;;;38.60;23.30;;;;;;;2.96;100.00;100787.97;105779;1254;73849;-80
2024/01/27 08:21:59;;;;;;;34.80;22.60;;;;;;;2.97;100.00;100790.02;105935;1256;62516;-81
2024/01/27 08:24:26;;;;;;;38.80;23.40;;;;;;;2.98;100.00;100792.07;105917;1252;72600;-82
2024/01/27 08:26:52;;;;;;;35.80;21.70;;;;;;;3.00;100.00;100795.11;107027;1255;60859;-80
2024/01/27 08:29:19;;;;;;;37.70;25.30;;;;;;;3.03;100.00;100797.11;106506;1257;60396;-79
2024/01/27 08:31:46;;;;;;;41.10;25.30;;;;;;;3.10;100.00;100795.73;108872;1253;74031;-81
2024/01/27 08:34:14;;;;;;;43.50;25.60;;;;;;;3.18;100.00;100794.83;109580;1253;62408;-78
2024/01/27 08:36:42;;;;;;;39.20;24.30;;;;;;;3.27;100.00;100791.48;108856;1254;71250;-79
2024/01/27 08:39:12;;;;;;;35.70;22.50;;;;;;;3.33;100.00;100791.83;108544;1254;61114;-79
2024/01/27 08:41:39;;;;;;;35.00;22.70;;;;;;;3.38;100.00;100797.74;106970;1253;60547;-79
2024/01/27 08:44:05;;;;;;;38.70;23.20;;;;;;;3.38;100.00;100799.29;105910;1256;73808;-81
2024/01/27 08:46:33;;;;;;;38.90;24.60;;;;;;;3.42;100.00;100800.94;106040;1256;62648;-80
2024/01/27 08:49:00;;;;;;;37.20;24.40;;;;;;;3.50;100.00;100799.46;106063;1254;73425;-80
2024/01/27 08:51:26;;;;;;;35.50;24.20;;;;;;;3.60;100.00;100798.70;106049;1254;61245;-79
2024/01/27 08:53:54;;;;;;;37.80;24.60;;;;;;;3.67;100.00;100801.59;105911;1255;60422;-79
2024/01/27 08:56:20;;;;;;;37.30;24.10;;;;;;;3.74;100.00;100795.35;105851;1264;73613;-80
2024/01/27 08:58:47;;;;;;;38.80;23.90;;;;;;;3.79;100.00;100795.72;105794;1256;63874;-80
2024/01/27 09:01:18;;;;;;;32.80;22.10;;;;;;;3.86;100.00;100792.92;105968;1257;72574;-80
2024/01/27 09:03:46;;;;;;;32.10;20.70;;;;;;;3.95;100.00;100790.42;106069;1257;61211;-79
2024/01/27 09:06:13;;;;;;;33.70;23.50;;;;;;;4.04;100.00;100789.11;106007;1257;60854;-79
2024/01/27 09:08:40;;;;;;;37.90;24.60;;;;;;;4.10;100.00;100786.84;105850;1254;71569;-80
2024/01/27 09:11:09;;;;;;;32.10;21.70;;;;;;;4.13;100.00;100789.52;105855;1257;63960;-80
2024/01/27 09:13:36;;;;;;;35.50;23.20;;;;;;;4.11;100.00;100789.23;105770;1256;72580;-81
2024/01/27 09:16:03;;;;;;;34.80;22.90;;;;;;;4.10;100.00;100792.38;106260;1256;60828;-80
2024/01/27 09:18:31;;;;;;;33.10;22.70;;;;;;;4.07;100.00;100790.20;106071;1256;60444;-81
2024/01/27 09:20:58;;;;;;;34.30;22.70;;;;;;;4.09;100.00;100792.94;106282;1256;74154;-81
2024/01/27 09:23:24;;;;;;;35.00;23.20;;;;;;;4.13;100.00;100794.70;106014;1255;63884;-82
2024/01/27 09:25:52;;;;;;;32.90;21.80;;;;;;;4.19;100.00;100795.05;105832;1255;72523;-82
2024/01/27 09:28:19;;;;;;;36.30;23.50;;;;;;;4.22;100.00;100800.84;106009;1264;60441;-81
2024/01/27 09:30:46;;;;;;;34.10;21.10;;;;;;;4.25;100.00;100799.53;105832;1256;60531;-82
2024/01/27 09:33:13;;;;;;;32.80;21.10;;;;;;;4.28;100.00;100804.45;107416;1254;74338;-80
2024/01/27 09:35:40;;;;;;;33.90;23.00;;;;;;;4.32;100.00;100803.46;107903;1256;62357;-79
2024/01/27 09:38:12;;;;;;;31.50;21.60;;;;;;;4.39;100.00;100801.34;106511;1257;72664;-81
2024/01/27 09:40:39;;;;;;;30.30;19.90;;;;;;;4.48;100.00;100799.33;106218;1256;61133;-80
2024/01/27 09:43:06;;;;;;;28.80;21.10;;;;;;;4.53;100.00;100801.40;105963;1253;60541;-83
2024/01/27 09:45:35;;;;;;;28.30;20.40;;;;;;;4.51;100.00;100804.94;105806;1260;73782;-81
2024/01/27 09:48:02;;;;;;;24.60;20.20;;;;;;;4.51;100.00;100805.11;106132;1256;64397;-81
2024/01/27 09:50:30;;;;;;;26.10;19.20;;;;;;;4.53;100.00;100798.30;106026;1254;72450;-81
2024/01/27 09:52:58;;;;;;;25.10;20.20;;;;;;;4.54;100.00;100805.55;107291;1256;61485;-81
2024/01/27 09:55:25;;;;;;;28.50;20.50;;;;;;;4.58;100.00;100805.95;106533;1251;60466;-82
2024/01/27 09:57:52;;;;;;;25.90;19.10;;;;;;;4.63;100.00;100809.22;106280;1253;72712;-82
2024/01/27 10:00:20;;;;;;;28.10;19.60;;;;;;;4.68;100.00;100812.20;105881;1256;61468;-82
2024/01/27 10:02:47;;;;;;;29.70;19.80;;;;;;;4.66;100.00;100807.42;105728;1254;71341;-82
2024/01/27 10:05:15;;;;;;;25.20;19.90;;;;;;;4.67;100.00;100811.02;105808;1257;61170;-83
2024/01/27 10:07:42;;;;;;;26.60;19.80;;;;;;;4.69;100.00;100808.17;106748;1252;60384;-80
2024/01/27 10:10:09;;;;;;;25.30;18.90;;;;;;;4.74;100.00;100808.86;109629;1253;72221;-82
2024/01/27 10:12:40;;;;;;;28.70;20.80;;;;;;;4.81;100.00;100808.13;108393;1256;62780;-81
2024/01/27 10:15:18;;;;;;;30.60;21.90;;;;;;;4.84;100.00;100807.70;107572;1254;72448;-81
2024/01/27 10:17:45;;;;;;;29.70;22.40;;;;;;;4.83;100.00;100808.76;106009;1257;61344;-81
2024/01/27 10:20:15;;;;;;;27.50;21.00;;;;;;;4.83;100.00;100809.10;105869;1254;60769;-81
2024/01/27 10:22:43;;;;;;;27.60;21.20;;;;;;;4.86;100.00;100812.64;105861;1254;73966;-82
2024/01/27 10:25:10;;;;;;;30.30;22.00;;;;;;;4.86;100.00;100816.09;105893;1255;63936;-82
2024/01/27 10:27:37;;;;;;;31.70;22.10;;;;;;;4.86;100.00;100815.44;105786;1253;73458;-82
2024/01/27 10:30:07;;;;;;;27.70;22.10;;;;;;;4.88;100.00;100813.61;105949;1256;61308;-81
2024/01/27 10:32:35;;;;;;;27.10;22.10;;;;;;;4.95;100.00;100817.87;105777;1256;60554;-82
2024/01/27 10:35:08;;;;;;;31.50;25.00;;;;;;;5.02;100.00;100820.42;105814;1252;73744;-81
2024/01/27 10:37:36;;;;;;;28.80;22.20;;;;;;;5.02;100.00;100821.98;105843;1255;63171;-82
2024/01/27 10:40:10;;;;;;;26.90;21.20;;;;;;;5.02;100.00;100826.69;105856;1254;71459;-82
2024/01/27 10:42:37;;;;;;;31.00;23.70;;;;;;;5.02;100.00;100826.51;105995;1254;60538;-82
2024/01/27 10:45:04;;;;;;;29.60;24.40;;;;;;;5.01;100.00;100824.46;105923;1254;60409;-81
2024/01/27 10:47:33;;;;;;;45.90;29.40;;;;;;;4.99;100.00;100823.48;105792;1256;72347;-82
2024/01/27 10:50:00;;;;;;;35.20;26.40;;;;;;;5.00;100.00;100822.77;105952;1256;63139;-80
2024/01/27 10:52:48;;;;;;;38.80;27.90;;;;;;;5.02;100.00;100821.83;105874;1254;71222;-82
2024/01/27 10:55:15;;;;;;;37.90;28.20;;;;;;;5.02;100.00;100822.52;105700;1253;61194;-81
2024/01/27 10:57:42;;;;;;;48.10;32.80;;;;;;;5.01;100.00;100824.98;105806;1254;60425;-81
2024/01/27 11:00:09;;;;;;;60.70;37.90;;;;;;;4.99;100.00;100824.84;105707;1254;74007;-82
2024/01/27 11:02:37;;;;;;;60.90;41.00;;;;;;;4.97;100.00;100825.10;105768;1257;63921;-80
2024/01/27 11:05:07;;;;;;;72.70;46.30;;;;;;;4.95;100.00;100829.48;105770;1257;72746;-80
2024/01/27 11:07:35;;;;;;;62.70;42.40;;;;;;;4.97;100.00;100829.59;105857;1257;61170;-80
2024/01/27 11:10:04;;;;;;;56.10;37.80;;;;;;;5.01;100.00;100832.95;105974;1254;61320;-82